Flight Track Log - Related Links

Times and Time Zones

All times are in EDT time to prevent confusion due to time zone crossing. See the FFT903 flight status page for this flight to view local times or setup timezone preferences in your user account.

Time Position Orientation Groundspeed Altitude Reporting Facility
EDT Latitude Longitude Course Direction KTS MPH feet Rate Location/Type
Sat 10:30:32 AM 40.2833 -74.8000 131° Southeast 147 169 1,100  Level Philadelphia TRACON
Sat 10:31:56 AM 40.2500 -74.7500 131° Southeast 258 297 3,400 1,625 Climbing Philadelphia TRACON
Sat 10:32:56 AM 40.2167 -74.8167 237° Southwest 283 326 5,000 1,591 Climbing Philadelphia TRACON
Sat 10:34:08 AM 40.1333 -74.8833 211° Southwest 282 325 6,900 909 Climbing Philadelphia TRACON
Sat 10:35:08 AM 40.0667 -74.9167 201° Southwest 285 328 7,000 105 Climbing Philadelphia TRACON
Sat 10:36:02 AM 40.0000 -74.9500 201° Southwest 286 329 7,100 1,474 Climbing Philadelphia TRACON
Sat 10:37:02 AM 39.9500 -75.0333 232° Southwest 281 323 9,800 1,450 Climbing Philadelphia TRACON
Sat 10:38:02 AM 39.9167 -75.1167 242° Southwest 290 334 10,000 95 Climbing Philadelphia TRACON
Sat 10:39:08 AM 39.9000 -75.2333 259° West 288 331 10,000 119 Level Philadelphia TRACON
Sat 10:41:24 AM 39.8781 -75.4694 263° West 312 359 10,400 773 Climbing New York Center
Sat 10:42:22 AM 39.8608 -75.5900 259° West 334 384 12,500 2,390 Climbing New York Center
Sat 10:43:22 AM 39.8353 -75.7019 253° West 350 403 15,100 2,529 Climbing New York Center
Sat 10:44:23 AM 39.7719 -75.8189 235° Southwest 363 418 17,600 1,869 Climbing New York Center
Sat 10:45:24 AM 39.7219 -75.9153 236° Southwest 371 427 18,900 1,613 Climbing New York Center
Sat 10:46:22 AM 39.6561 -76.0372 235° Southwest 388 447 20,800 1,765 Climbing New York Center
Sat 10:47:23 AM 39.5967 -76.1514 236° Southwest 393 452 22,400 1,574 Climbing New York Center
Sat 10:48:24 AM 39.5442 -76.2981 245° Southwest 399 459 24,000 1,916 Climbing New York Center
Sat 10:49:22 AM 39.5519 -76.4389 274° West 389 448 26,200 1,678 Climbing New York Center
Sat 10:50:22 AM 39.5203 -76.5764 253° West 395 455 27,300 1,027 Climbing New York Center
Sat 10:51:13 AM 39.4669 -76.6775 236° Southwest 399 459 28,100 936 Climbing Washington Center
Sat 10:52:11 AM 39.3972 -76.7947 232° Southwest 417 480 29,000 1,210 Climbing Washington Center
Sat 10:53:12 AM 39.3044 -76.8869 218° Southwest 417 480 30,500 1,475 Climbing Washington Center
Sat 10:54:13 AM 39.2161 -76.9767 218° Southwest 412 474 32,000 756 Climbing Washington Center
Sat 10:55:11 AM 39.1275 -77.0633 217° Southwest 412 474 32,000  Level Washington Center
Sat 10:56:12 AM 39.0431 -77.1497 218° Southwest 405 466 32,000  Level Washington Center
Sat 10:57:13 AM 38.9564 -77.2333 217° Southwest 398 458 32,000  Level Washington Center
Sat 10:58:13 AM 38.8697 -77.3167 217° Southwest 398 458 32,000  Level Washington Center
Sat 10:59:11 AM 38.7831 -77.4000 217° Southwest 398 458 32,000  Level Washington Center
Sat 11:00:12 AM 38.7047 -77.4806 219° Southwest 398 458 32,000  Level Washington Center
Sat 11:01:13 AM 38.6178 -77.5658 217° Southwest 398 458 32,000  Level Washington Center
Sat 11:02:11 AM 38.5308 -77.6511 218° Southwest 398 458 32,000  Level Washington Center
Sat 11:03:12 AM 38.4439 -77.7361 217° Southwest 398 458 32,000  Level Washington Center
Sat 11:04:11 AM 38.3569 -77.8211 217° Southwest 398 458 32,000  Level Washington Center
Sat 11:05:11 AM 38.2719 -77.9058 218° Southwest 398 458 32,000  Level Washington Center
Sat 11:06:11 AM 38.1847 -77.9903 217° Southwest 398 458 32,000  Level Washington Center
Sat 11:07:13 AM 38.0953 -78.0772 217° Southwest 404 465 32,000  Level Washington Center
Sat 11:08:13 AM 38.0081 -78.1586 216° Southwest 397 457 32,000  Level Washington Center
Sat 11:09:13 AM 37.9164 -78.2503 218° Southwest 389 448 32,000  Level Washington Center
Sat 11:10:10 AM 37.8269 -78.3314 216° Southwest 389 448 32,000  Level Washington Center
Sat 11:11:11 AM 37.7417 -78.4150 218° Southwest 394 453 32,000  Level Washington Center
Sat 11:12:11 AM 37.6542 -78.4956 216° Southwest 399 459 32,000  Level Washington Center
Sat 11:13:12 AM 37.5667 -78.5814 218° Southwest 399 459 32,000  Level Washington Center
Sat 11:14:13 AM 37.4792 -78.6617 216° Southwest 399 459 32,000  Level Washington Center
Sat 11:15:13 AM 37.4019 -78.7369 218° Southwest 399 459 32,000 51 Level Washington Center
Sat 11:16:11 AM 37.3122 -78.8167 215° Southwest 399 459 32,100  Climbing Washington Center
Sat 11:17:12 AM 37.2225 -78.8992 216° Southwest 399 459 32,000 -49 Descending Washington Center
Sat 11:18:13 AM 37.1325 -78.9811 216° Southwest 399 459 32,000  Level Washington Center
Sat 11:19:11 AM 37.0444 -79.0658 218° Southwest 399 459 32,000  Level Washington Center
Sat 11:20:11 AM 36.9544 -79.1475 216° Southwest 399 459 32,000 49 Level Washington Center
Sat 11:21:13 AM 36.8667 -79.2292 217° Southwest 399 459 32,100  Climbing Washington Center
Sat 11:22:13 AM 36.7744 -79.3103 215° Southwest 399 459 32,000 -51 Descending Washington Center
Sat 11:23:11 AM 36.6842 -79.3942 217° Southwest 404 465 32,000  Level Washington Center
Sat 11:25:26 AM 36.4739 -79.5853 216° Southwest 397 457 32,000  Level Atlanta Center
Sat 11:26:26 AM 36.4011 -79.6511 216° Southwest 403 464 32,000  Level Atlanta Center
Sat 11:27:26 AM 36.3022 -79.7417 216° Southwest 403 464 32,000  Level Atlanta Center
Sat 11:28:26 AM 36.2111 -79.8236 216° Southwest 403 464 32,000  Level Atlanta Center
Sat 11:29:26 AM 36.1242 -79.9028 216° Southwest 403 464 32,000  Level Atlanta Center
Sat 11:30:26 AM 36.0353 -79.9919 219° Southwest 403 464 32,000 50 Level Atlanta Center
Sat 11:31:26 AM 35.9528 -80.0858 223° Southwest 409 471 32,100  Climbing Atlanta Center
Sat 11:32:26 AM 35.8433 -80.1194 194° South 394 453 32,000 -50 Descending Atlanta Center
Sat 11:33:26 AM 35.7319 -80.1553 195° South 405 466 32,000  Level Atlanta Center
Sat 11:34:26 AM 35.6081 -80.1944 194° South 416 479 32,000  Level Atlanta Center
Sat 11:35:26 AM 35.4964 -80.2278 194° South 421 484 32,000  Level Atlanta Center
Sat 11:36:26 AM 35.3828 -80.2611 193° South 421 484 32,000  Level Atlanta Center
Sat 11:37:26 AM 35.2689 -80.2942 193° South 421 484 32,000  Level Atlanta Center
Sat 11:39:51 AM 35.0003 -80.3761 194° South 431 496 32,000  Level Jacksonville Center
Sat 11:40:51 AM 34.8925 -80.4097 194° South 411 473 32,000  Level Jacksonville Center
Sat 11:41:52 AM 34.7847 -80.4458 195° South 406 467 32,000  Level Jacksonville Center
Sat 11:42:51 AM 34.6750 -80.4767 193° South 401 461 32,000  Level Jacksonville Center
Sat 11:43:51 AM 34.5608 -80.5075 193° South 408 470 32,000  Level Jacksonville Center
Sat 11:44:51 AM 34.4489 -80.5433 195° South 418 481 32,000  Level Jacksonville Center
Sat 11:45:51 AM 34.3325 -80.5742 192° South 423 487 32,000  Level Jacksonville Center
Sat 11:46:51 AM 34.2206 -80.6097 195° South 423 487 32,000  Level Jacksonville Center
Sat 11:47:51 AM 34.1042 -80.6431 193° South 429 494 32,000  Level Jacksonville Center
Sat 11:48:51 AM 33.9983 -80.6758 194° South 429 494 32,000  Level Jacksonville Center
Sat 11:49:51 AM 33.8800 -80.7086 193° South 429 494 32,000 -50 Level Jacksonville Center
Sat 11:50:51 AM 33.7681 -80.7414 194° South 429 494 31,900  Descending Jacksonville Center
Sat 11:51:51 AM 33.6514 -80.7644 189° South 429 494 32,000 50 Climbing Jacksonville Center
Sat 11:52:51 AM 33.5306 -80.7722 183° South 429 494 32,000  Level Jacksonville Center
Sat 11:53:52 AM 33.4078 -80.7850 185° South 429 494 32,000 -50 Level Jacksonville Center
Sat 11:54:51 AM 33.2867 -80.7928 183° South 435 501 31,900 -50 Descending Jacksonville Center
Sat 11:55:51 AM 33.1681 -80.8031 184° South 440 506 31,900  Level Jacksonville Center
Sat 11:56:51 AM 33.0450 -80.8158 185° South 440 506 31,900 50 Level Jacksonville Center
Sat 11:57:51 AM 32.9242 -80.8236 183° South 440 506 32,000 50 Climbing Jacksonville Center
Sat 11:58:51 AM 32.7992 -80.8364 185° South 446 513 32,000  Level Jacksonville Center
Sat 11:59:51 AM 32.6761 -80.8442 183° South 446 513 32,000  Level Jacksonville Center
Sat 12:00:51 PM 32.5531 -80.8544 184° South 446 513 32,000  Level Jacksonville Center
Sat 12:01:51 PM 32.4281 -80.8644 184° South 446 513 32,000  Level Jacksonville Center
Sat 12:02:52 PM 32.2944 -80.8747 184° South 441 507 32,000  Level Jacksonville Center
Sat 12:03:52 PM 32.1714 -80.8850 184° South 446 513 32,000  Level Jacksonville Center
Sat 12:04:51 PM 32.0589 -80.8922 183° South 446 513 32,000  Level Jacksonville Center
Sat 12:05:51 PM 31.9214 -80.9075 185° South 446 513 32,000 50 Level Jacksonville Center
Sat 12:06:51 PM 31.8003 -80.9150 183° South 446 513 32,100  Climbing Jacksonville Center
Sat 12:07:51 PM 31.6878 -80.9247 184° South 446 513 32,000 -50 Descending Jacksonville Center
Sat 12:08:52 PM 31.5500 -80.9350 184° South 446 513 32,000 50 Level Jacksonville Center
Sat 12:09:51 PM 31.4375 -80.9447 184° South 457 526 32,100  Climbing Jacksonville Center
Sat 12:10:51 PM 31.2978 -80.9572 184° South 462 532 32,000 -50 Descending Jacksonville Center
Sat 12:11:52 PM 31.1706 -80.9672 184° South 462 532 32,000  Level Jacksonville Center
Sat 12:12:51 PM 31.0433 -80.9769 184° South 462 532 32,000  Level Jacksonville Center
Sat 12:13:51 PM 30.9161 -80.9869 184° South 462 532 32,000  Level Jacksonville Center
Sat 12:14:52 PM 30.7847 -80.9967 184° South 462 532 32,000  Level Jacksonville Center
Sat 12:15:51 PM 30.6556 -81.0042 183° South 462 532 32,000 -50 Level Jacksonville Center
Sat 12:16:51 PM 30.5306 -81.0186 186° South 462 532 31,900 -50 Descending Jacksonville Center
Sat 12:17:52 PM 30.4033 -81.0283 184° South 462 532 31,900 50 Level Jacksonville Center
Sat 12:18:52 PM 30.2739 -81.0381 184° South 462 532 32,000 50 Climbing Jacksonville Center
Sat 12:19:51 PM 30.1467 -81.0478 184° South 462 532 32,000  Level Jacksonville Center
Sat 12:20:52 PM 30.0175 -81.0575 184° South 462 532 32,000  Level Jacksonville Center
Sat 12:21:51 PM 29.8861 -81.0694 185° South 462 532 32,000  Level Jacksonville Center
Sat 12:22:51 PM 29.7544 -81.0672 179° South 467 537 32,000  Level Jacksonville Center
Sat 12:23:51 PM 29.6408 -81.0047 154° Southeast 446 513 32,000  Level Jacksonville Center
Sat 12:24:52 PM 29.5208 -80.9331 153° Southeast 460 529 32,000  Level Jacksonville Center
Sat 12:25:51 PM 29.4197 -80.8683 151° Southeast 465 535 32,000  Level Jacksonville Center
Sat 12:26:55 PM 29.3022 -80.8006 153° Southeast 470 541 32,000  Level Miami Center
Sat 12:27:57 PM 29.1847 -80.7314 153° Southeast 471 542 32,000  Level Miami Center
Sat 12:28:59 PM 29.0447 -80.6475 152° Southeast 474 545 32,000  Level Miami Center
Sat 12:30:02 PM 28.9278 -80.5797 153° Southeast 472 543 32,000  Level Miami Center
Sat 12:31:04 PM 28.8006 -80.5050 153° Southeast 471 542 32,000  Level Miami Center
Sat 12:32:06 PM 28.6750 -80.4425 156° South 471 542 32,000  Level Miami Center
Sat 12:33:08 PM 28.5494 -80.3803 156° South 472 543 32,000  Level Miami Center
Sat 12:34:11 PM 28.4239 -80.3183 157° South 471 542 32,000  Level Miami Center
Sat 12:35:13 PM 28.3078 -80.2614 157° South 471 542 32,000 -194 Level Miami Center
Sat 12:36:15 PM 28.1828 -80.1994 156° South 471 542 31,600 -480 Descending Miami Center
Sat 12:37:18 PM 28.0572 -80.1381 157° South 470 541 31,000 -576 Descending Miami Center
Sat 12:38:20 PM 27.9314 -80.0769 157° South 470 541 30,400 -484 Descending Miami Center
Sat 12:39:22 PM 27.8233 -80.0244 157° South 467 537 30,000 -194 Descending Miami Center
Sat 12:40:24 PM 27.7047 -79.9664 157° South 467 537 30,000 -384 Level Miami Center
Sat 12:41:27 PM 27.5619 -79.8975 157° South 463 533 29,200 -1,584 Descending Miami Center
Sat 12:42:29 PM 27.4367 -79.8375 157° South 455 524 26,700 -2,323 Descending Miami Center
Sat 12:43:31 PM 27.3272 -79.7853 157° South 442 509 24,400 -2,160 Descending Miami Center
Sat 12:44:34 PM 27.2094 -79.7456 163° South 424 488 22,200 -2,064 Descending Miami Center
Sat 12:45:36 PM 27.0936 -79.7100 165° South 418 481 20,100 -1,984 Descending Miami Center
Sat 12:46:38 PM 26.9811 -79.6761 165° South 400 460 18,100 -1,935 Descending Miami Center
Sat 12:47:40 PM 26.8742 -79.6447 165° South 381 438 16,100 -1,872 Descending Miami Center
Sat 12:48:43 PM 26.7761 -79.6711 194° South 362 417 14,200 -1,728 Descending Miami Center
Sat 12:49:45 PM 26.6861 -79.7136 203° Southwest 352 405 12,500 -1,661 Descending Miami Center
Sat 12:50:35 PM 26.6078 -79.7525 204° Southwest 337 388 11,100 -1,548 Descending Miami Center
Sat 12:50:47 PM 26.6003 -79.7550 197° South 336 387 10,900 -1,279 Descending Miami Center
Sat 12:51:36 PM 26.5239 -79.7906 203° Southwest 314 361 9,800 -1,333 Descending Miami Center
Sat 12:51:50 PM 26.5058 -79.8003 206° Southwest 312 359 9,500 -1,574 Descending Miami Center
Sat 12:52:37 PM 26.4461 -79.8289 203° Southwest 299 344 8,200 -1,452 Descending Miami Center
Sat 12:52:52 PM 26.4300 -79.8353 200° South 294 338 8,000 -295 Descending Miami Center
Sat 12:53:38 PM 26.3706 -79.8700 208° Southwest 297 342 7,900 -484 Descending Miami Center
Sat 12:53:54 PM 26.3544 -79.8844 219° Southwest 293 337 7,500 -1,215 Descending Miami Center
Sat 12:54:57 PM 26.2933 -79.9442 221° Southwest 293 337 6,300 -804 Descending Miami Center
Sat 12:55:46 PM 26.2439 -79.9906 220° Southwest 258 297 6,000 -387 Descending Miami Center
Sat 12:55:59 PM 26.2386 -79.9964 225° Southwest 268 308 5,900  Descending Miami Center
Sat 12:56:47 PM 26.1925 -80.0403 221° Southwest 239 275 6,000  Climbing Miami Center
Sat 12:57:01 PM 26.1886 -80.0444 224° Southwest 240 276 5,900 -98 Descending Miami Center
Sat 12:57:48 PM 26.1636 -80.1053 245° Southwest 234 269 5,900 -95 Level Miami Center
Sat 12:58:04 PM 26.1633 -80.1103 266° West 236 272 5,800 -982 Descending Miami Center
Sat 12:58:43 PM 26.1494 -80.1644 254° West 211 243 5,000 -1,161 Descending Miami Center
Sat 12:59:06 PM 26.1497 -80.1872 271° West 215 247 4,600 -896 Descending Miami Center
Sat 12:59:50 PM 26.1492 -80.2364 269° West 214 246 4,000 -677 Descending Miami Center
Sat 01:00:08 PM 26.1494 -80.2522 271° West 213 245 3,900  Descending Miami Center
Sat 01:00:50 PM 26.1492 -80.3014 270° West 210 242 4,000  Climbing Miami Center
Sat 01:01:10 PM 26.1497 -80.3169 272° West 212 244 3,900 -545 Descending Miami Center
Sat 01:01:45 PM 26.1233 -80.3458 225° Southwest 213 245 3,500 -857 Descending Miami Center
Sat 01:02:13 PM 26.1056 -80.3425 170° South 211 243 3,000 -984 Descending Miami Center
Sat 01:02:46 PM 26.0811 -80.3169 137° Southeast 190 219 2,500 -774 Descending Miami Center
Sat 01:03:15 PM 26.0781 -80.2975 100° East 195 224 2,200 -885 Descending Miami Center
Sat 01:03:47 PM 26.0764 -80.2586 93° East 181 208 1,600 -1,065 Descending Miami Center
Sat 01:04:17 PM 26.0772 -80.2325 88° East 178 205 1,100 -806 Descending Miami Center
Sat 01:04:54 PM 26.0775 -80.2078 89° East 134 154 700 -667 Descending Miami Center
Sat 01:05:20 PM 26.0769 -80.1922 92° East 135 155 400 -692 Descending Miami Center
Sat 01:08:00 PM 26.0667 -80.1500 103° East  Level FlightAware Approximate

Login

Don't have an account? Register now (free) for customized features, flight alerts, and more!